Time;durP1;ratioP1;P1;durP2;ratioP2;P2;SDS_P1;SDS_P2;PMS_P1;PMS_P2;Temp;Humidity;BMP_temperature;BMP_pressure;BME280_temperature;BME280_humidity;BME280_pressure;Samples;Min_cycle;Max_cycle;Signal;HPM_P1;HPM_P2
2022/06/06 00:00:01;;;;;;;;;16.00;14.00;;;;;15.44;77.75;101253.97;5029754;28;9499;-66
2022/06/06 00:02:37;;;;;;;;;15.00;12.75;;;;;15.45;77.72;101243.94;5040463;28;9673;-67
2022/06/06 00:05:05;;;;;;;;;21.75;20.25;;;;;15.46;77.96;101251.84;5027643;28;9619;-67
2022/06/06 00:07:31;;;;;;;;;23.50;18.50;;;;;15.43;77.52;101248.75;5046072;28;9679;-65
2022/06/06 00:09:58;;;;;;;;;27.00;22.75;;;;;15.31;77.75;101246.72;5032900;28;10405;-67
2022/06/06 00:12:24;;;;;;;;;22.75;17.25;;;;;15.30;77.64;101250.47;5031532;28;9836;-67
2022/06/06 00:14:51;;;;;;;;;26.50;24.00;;;;;15.24;77.61;101240.50;5031195;28;9640;-67
2022/06/06 00:17:18;;;;;;;;;32.75;24.50;;;;;15.15;77.74;101239.06;5043118;28;10720;-65
2022/06/06 00:19:44;;;;;;;;;22.25;18.75;;;;;15.12;78.04;101238.66;5034314;28;9866;-66
2022/06/06 00:22:11;;;;;;;;;22.75;21.00;;;;;15.09;77.96;101235.31;5035793;28;9794;-67
2022/06/06 00:24:37;;;;;;;;;25.75;20.00;;;;;15.05;77.87;101233.25;5036530;28;9856;-67
2022/06/06 00:27:04;;;;;;;;;22.25;18.50;;;;;15.01;77.86;101229.31;5029618;28;9859;-67
2022/06/06 00:29:35;;;;;;;;;24.00;21.75;;;;;15.05;78.34;101239.50;5024219;28;9864;-65
2022/06/06 00:34:49;;;;;;;;;25.00;23.00;;;;;15.15;77.79;101232.78;5031966;28;9884;-67
2022/06/06 00:37:27;;;;;;;;;18.00;14.50;;;;;15.04;77.40;101235.16;5031826;28;10804;-67
2022/06/06 00:39:55;;;;;;;;;21.25;19.25;;;;;15.05;77.94;101231.38;5039009;28;9907;-66
2022/06/06 00:42:24;;;;;;;;;24.00;21.75;;;;;15.03;77.66;101225.34;5037578;28;10028;-67
2022/06/06 00:45:19;;;;;;;;;18.50;15.75;;;;;15.06;77.83;101226.78;5035627;28;10040;-67
2022/06/06 00:47:52;;;;;;;;;18.75;17.50;;;;;15.07;77.62;101223.06;5031197;28;9590;-65
2022/06/06 00:50:30;;;;;;;;;18.75;17.75;;;;;15.03;77.56;101230.78;5036557;28;9807;-66
2022/06/06 00:52:59;;;;;;;;;16.00;16.00;;;;;15.04;78.07;101232.44;5040819;28;9913;-67
2022/06/06 00:55:29;;;;;;;;;21.25;17.25;;;;;15.02;77.64;101225.56;5031795;28;9514;-66
2022/06/06 00:58:00;;;;;;;;;15.00;13.75;;;;;15.00;77.70;101222.22;5032479;28;9644;-67
2022/06/06 01:00:27;;;;;;;;;12.75;12.00;;;;;15.01;77.73;101216.59;5041566;28;9773;-65
2022/06/06 01:02:56;;;;;;;;;19.00;16.50;;;;;15.04;77.79;101218.06;5039284;28;9663;-67
2022/06/06 01:05:24;;;;;;;;;15.75;14.00;;;;;15.02;77.33;101204.69;5031003;28;9687;-66
2022/06/06 01:07:51;;;;;;;;;18.00;13.75;;;;;15.01;77.55;101221.19;5043269;28;9625;-65
2022/06/06 01:10:18;;;;;;;;;13.25;13.00;;;;;14.98;77.35;101210.75;5033621;28;9606;-67
2022/06/06 01:12:49;;;;;;;;;14.25;13.50;;;;;15.00;77.59;101211.38;5038929;28;9787;-65
2022/06/06 01:15:20;;;;;;;;;14.25;13.50;;;;;14.96;77.37;101204.72;5051337;28;9546;-67
2022/06/06 01:18:12;;;;;;;;;12.75;11.00;;;;;14.90;77.25;101205.56;5026418;28;9690;-67
2022/06/06 01:21:06;;;;;;;;;10.00;9.50;;;;;14.87;77.26;101214.13;5039518;28;9683;-67
2022/06/06 01:23:45;;;;;;;;;14.25;10.75;;;;;14.90;77.56;101208.28;5043210;28;9683;-67
2022/06/06 01:26:30;;;;;;;;;11.25;9.75;;;;;14.92;77.31;101215.16;5023757;28;9583;-67
2022/06/06 01:29:03;;;;;;;;;9.00;7.75;;;;;14.96;77.40;101210.16;5036705;28;9664;-63
2022/06/06 01:31:39;;;;;;;;;11.00;10.00;;;;;15.00;76.99;101209.50;5040272;28;9689;-67
2022/06/06 01:34:08;;;;;;;;;12.25;7.50;;;;;14.99;76.80;101207.84;5031058;28;9672;-65
2022/06/06 01:36:36;;;;;;;;;10.00;9.75;;;;;15.00;77.09;101208.69;5031213;28;9528;-66
2022/06/06 01:39:07;;;;;;;;;11.25;9.00;;;;;14.96;76.76;101213.69;5031567;28;9455;-67
2022/06/06 01:41:40;;;;;;;;;12.25;11.00;;;;;14.92;76.98;101211.63;5038478;28;9622;-66
2022/06/06 01:44:12;;;;;;;;;12.00;9.25;;;;;14.90;76.67;101211.81;5022120;28;9608;-65
2022/06/06 01:46:38;;;;;;;;;10.75;9.00;;;;;14.82;77.14;101214.78;5038999;28;9840;-66
2022/06/06 01:49:10;;;;;;;;;13.50;11.75;;;;;14.88;77.10;101207.69;5036359;28;9503;-67
2022/06/06 01:51:37;;;;;;;;;11.00;8.67;;;;;14.86;76.75;101207.03;5028150;28;9513;-67
2022/06/06 01:54:03;;;;;;;;;11.00;10.00;;;;;14.90;76.85;101211.00;5041808;28;9478;-66
2022/06/06 01:56:34;;;;;;;;;16.00;9.75;;;;;14.89;77.04;101210.16;5032498;28;9369;-67
2022/06/06 01:59:01;;;;;;;;;12.75;10.50;;;;;14.90;76.71;101205.56;5036448;28;9582;-66
2022/06/06 02:01:27;;;;;;;;;16.00;12.00;;;;;14.92;76.84;101200.78;5031650;28;10366;-67
2022/06/06 02:03:54;;;;;;;;;6.75;5.50;;;;;14.94;76.60;101206.81;5039585;28;10419;-66
2022/06/06 02:06:21;;;;;;;;;10.25;8.25;;;;;14.90;76.49;101205.56;5029602;28;9500;-66
2022/06/06 02:08:50;;;;;;;;;11.50;10.00;;;;;14.84;76.50;101205.38;5037326;28;9591;-66
2022/06/06 02:11:18;;;;;;;;;12.00;9.75;;;;;14.78;76.30;101198.09;5033154;28;9606;-67
2022/06/06 02:13:45;;;;;;;;;8.75;8.75;;;;;14.80;76.70;101206.03;5036766;28;9609;-67
2022/06/06 02:16:12;;;;;;;;;7.75;7.00;;;;;14.82;76.48;101202.03;5040338;28;9463;-67
2022/06/06 02:18:38;;;;;;;;;14.50;9.00;;;;;14.81;76.52;101196.84;5029654;28;9588;-67
2022/06/06 02:21:05;;;;;;;;;10.00;8.00;;;;;14.69;76.21;101199.38;5033608;28;9659;-67
2022/06/06 02:23:32;;;;;;;;;9.25;8.25;;;;;14.69;76.53;101203.97;5034275;28;9588;-66
2022/06/06 02:25:58;;;;;;;;;13.50;13.25;;;;;14.67;76.63;101206.91;5025384;28;9758;-67
2022/06/06 02:28:25;;;;;;;;;12.25;12.25;;;;;14.63;76.37;101208.38;5019035;28;9743;-67
2022/06/06 02:30:52;;;;;;;;;11.50;10.00;;;;;14.61;76.45;101206.91;5035110;28;9680;-66
2022/06/06 02:33:18;;;;;;;;;12.50;11.00;;;;;14.63;76.66;101208.38;5032498;28;9596;-67
2022/06/06 02:35:45;;;;;;;;;15.50;13.75;;;;;14.66;76.58;101197.09;5027406;28;9610;-67
2022/06/06 02:38:13;;;;;;;;;16.50;13.50;;;;;14.72;76.53;101200.84;5036314;28;9697;-65
2022/06/06 02:40:41;;;;;;;;;11.75;11.00;;;;;14.78;76.52;101198.09;5027988;28;9742;-66
2022/06/06 02:43:07;;;;;;;;;13.75;11.00;;;;;14.81;76.36;101196.84;5034171;28;10472;-67
2022/06/06 02:45:34;;;;;;;;;11.75;10.00;;;;;14.81;76.09;101197.69;5041697;28;9725;-66
2022/06/06 02:48:08;;;;;;;;;14.00;12.75;;;;;14.77;75.97;101196.44;5022528;28;9614;-67
2022/06/06 02:50:35;;;;;;;;;20.25;16.25;;;;;14.76;75.74;101193.97;5049633;28;10413;-67
2022/06/06 02:53:02;;;;;;;;;10.75;10.75;;;;;14.72;75.91;101190.84;5029175;28;9596;-65
2022/06/06 02:55:28;;;;;;;;;14.00;13.00;;;;;14.73;75.99;101183.53;5033765;28;9531;-66
2022/06/06 02:57:55;;;;;;;;;12.50;10.50;;;;;14.75;76.07;101184.16;5042311;28;9606;-67
2022/06/06 03:00:26;;;;;;;;;15.75;14.75;;;;;14.76;76.31;101175.00;5033887;28;9670;-66
2022/06/06 03:02:53;;;;;;;;;15.00;9.00;;;;;14.78;75.83;101175.59;5042853;28;9574;-67
2022/06/06 03:05:20;;;;;;;;;16.00;12.50;;;;;14.73;75.85;101183.53;5032833;28;9764;-67
2022/06/06 03:08:14;;;;;;;;;12.25;11.50;;;;;14.75;75.89;101190.41;5044981;28;9770;-67
2022/06/06 03:11:14;;;;;;;;;18.50;12.50;;;;;14.75;75.93;101186.88;5033827;28;9548;-65
2022/06/06 03:14:16;;;;;;;;;18.50;14.75;;;;;14.76;75.82;101191.25;5044686;28;9540;-65
2022/06/06 03:23:23;;;;;;;;;11.50;9.75;;;;;14.71;75.74;101193.78;5043430;28;9683;-67
2022/06/06 03:26:11;;;;;;;;;12.75;11.00;;;;;14.75;75.77;101197.72;5036409;28;9751;-66
2022/06/06 03:28:52;;;;;;;;;11.75;10.00;;;;;14.75;76.05;101192.31;5038010;28;9666;-67
2022/06/06 03:31:41;;;;;;;;;14.50;14.50;;;;;14.74;75.85;101201.44;5034269;28;10186;-67
2022/06/06 03:34:38;;;;;;;;;12.75;11.75;;;;;14.66;75.94;101201.69;5027139;28;9859;-64
2022/06/06 03:37:31;;;;;;;;;12.75;11.50;;;;;14.64;75.79;101191.06;5044795;28;9666;-65
2022/06/06 03:40:17;;;;;;;;;12.25;12.25;;;;;14.69;76.21;101195.84;5027273;28;9743;-66
2022/06/06 03:43:00;;;;;;;;;9.50;9.25;;;;;14.72;76.32;101188.13;5042378;28;9702;-64
2022/06/06 03:45:38;;;;;;;;;11.25;10.25;;;;;14.74;75.57;101182.47;5033301;28;9610;-66
2022/06/06 03:48:26;;;;;;;;;14.00;12.50;;;;;14.71;76.03;101186.47;5029091;28;9703;-66
2022/06/06 03:51:14;;;;;;;;;15.00;15.00;;;;;14.70;76.23;101189.38;5039185;28;9648;-66
2022/06/06 03:54:19;;;;;;;;;14.50;11.00;;;;;14.69;75.91;101191.25;5037705;28;9687;-66
2022/06/06 03:56:54;;;;;;;;;16.75;15.00;;;;;14.68;75.95;101192.31;5039124;28;10711;-64
2022/06/06 03:59:22;;;;;;;;;11.50;10.75;;;;;14.71;75.92;101178.34;5033123;28;9604;-65
2022/06/06 04:01:50;;;;;;;;;16.75;12.00;;;;;14.66;76.06;101197.09;5033081;28;9834;-66
2022/06/06 04:04:16;;;;;;;;;12.50;11.25;;;;;14.65;76.44;101183.78;5032842;28;9709;-66
2022/06/06 04:06:46;;;;;;;;;17.00;13.00;;;;;14.71;76.42;101177.50;5040731;28;9619;-66
2022/06/06 04:09:12;;;;;;;;;13.75;12.00;;;;;14.71;76.26;101178.34;5044514;28;9577;-66
2022/06/06 04:12:11;;;;;;;;;16.00;15.25;;;;;14.74;76.34;101183.31;5029694;28;9591;-66
2022/06/06 04:14:48;;;;;;;;;16.50;16.50;;;;;14.74;76.20;101185.19;5024229;28;9522;-66
2022/06/06 04:17:39;;;;;;;;;16.50;16.50;;;;;14.69;76.10;101187.72;5042445;28;9530;-66
2022/06/06 04:20:15;;;;;;;;;25.25;19.50;;;;;14.65;76.22;101181.88;5027859;28;9730;-66
2022/06/06 04:22:59;;;;;;;;;17.25;16.50;;;;;14.64;76.50;101191.06;5051392;28;9756;-66
2022/06/06 04:25:48;;;;;;;;;17.00;15.25;;;;;14.63;76.56;101194.84;5042984;28;9763;-66
2022/06/06 04:28:21;;;;;;;;;16.00;13.75;;;;;14.65;76.28;101190.00;5027873;28;9684;-66
2022/06/06 04:31:18;;;;;;;;;18.75;16.25;;;;;14.65;76.36;101195.44;5039316;28;9592;-66
2022/06/06 04:33:50;;;;;;;;;20.00;16.50;;;;;14.68;76.41;101186.06;5043424;28;9761;-64
2022/06/06 04:36:29;;;;;;;;;18.25;15.00;;;;;14.72;76.39;101190.84;5034876;28;9758;-66
2022/06/06 04:39:09;;;;;;;;;21.00;20.75;;;;;14.76;76.10;101196.66;5040723;28;9520;-66
2022/06/06 04:41:45;;;;;;;;;21.75;16.25;;;;;14.79;76.09;101204.38;5036119;28;9673;-66
2022/06/06 04:44:25;;;;;;;;;20.25;19.25;;;;;14.78;76.18;101203.53;5025122;28;10374;-66
2022/06/06 04:47:02;;;;;;;;;16.75;16.00;;;;;14.73;75.93;101199.78;5038026;28;9832;-65
2022/06/06 04:49:31;;;;;;;;;18.75;13.75;;;;;14.71;75.97;101201.91;5041058;28;9801;-65
2022/06/06 04:51:59;;;;;;;;;20.25;17.75;;;;;14.66;75.80;101190.84;5044400;28;9615;-66
2022/06/06 04:54:28;;;;;;;;;17.50;14.75;;;;;14.63;76.27;101191.28;5034232;28;9857;-66
2022/06/06 04:56:56;;;;;;;;;14.75;14.00;;;;;14.63;75.80;101194.84;5037701;28;9748;-65
2022/06/06 04:59:24;;;;;;;;;18.25;17.25;;;;;14.68;75.83;101194.19;5035000;28;9674;-65
2022/06/06 05:01:52;;;;;;;;;18.50;16.75;;;;;14.72;75.87;101195.44;5041667;28;9715;-65
2022/06/06 05:04:18;;;;;;;;;16.50;13.50;;;;;14.75;75.61;101201.25;5028114;28;9576;-66
2022/06/06 05:06:55;;;;;;;;;11.75;10.50;;;;;14.82;75.72;101191.19;5035499;28;9615;-65
2022/06/06 05:09:43;;;;;;;;;16.75;15.75;;;;;14.92;75.30;101190.78;5028759;28;9547;-66
2022/06/06 05:12:43;;;;;;;;;14.50;10.25;;;;;14.89;74.80;101191.19;5038973;28;9503;-66
2022/06/06 05:15:38;;;;;;;;;17.67;12.67;;;;;14.91;74.85;101193.69;5035321;28;9524;-65
2022/06/06 05:18:27;;;;;;;;;13.75;12.25;;;;;14.93;74.81;101208.69;5033706;28;9396;-66
2022/06/06 05:21:15;;;;;;;;;13.75;13.50;;;;;14.93;74.74;101197.03;5035746;28;9507;-65
2022/06/06 05:23:48;;;;;;;;;16.75;13.75;;;;;14.91;74.95;101191.81;5023441;28;10596;-66
2022/06/06 05:26:26;;;;;;;;;12.25;10.25;;;;;14.90;74.99;101192.84;5045186;28;9544;-66
2022/06/06 05:29:08;;;;;;;;;12.00;11.75;;;;;14.89;75.38;101193.06;5037482;28;9611;-66
2022/06/06 05:31:56;;;;;;;;;19.25;15.25;;;;;14.87;75.49;101197.88;5037261;28;9542;-65
2022/06/06 05:34:31;;;;;;;;;11.67;9.67;;;;;14.79;75.31;101196.25;5022867;28;9595;-65
2022/06/06 05:37:01;;;;;;;;;14.75;14.75;;;;;14.81;75.63;101197.69;5037309;28;9387;-64
2022/06/06 05:39:46;;;;;;;;;12.75;11.00;;;;;14.78;75.46;101200.81;5030734;28;10068;-63
2022/06/06 05:42:18;;;;;;;;;14.50;13.50;;;;;14.77;75.73;101196.44;5027208;28;9521;-64
2022/06/06 05:44:53;;;;;;;;;9.00;8.33;;;;;14.76;75.74;101200.22;5044715;28;10402;-63
2022/06/06 05:47:37;;;;;;;;;9.25;8.50;;;;;14.76;75.60;101202.91;5032555;28;9419;-65
2022/06/06 05:50:13;;;;;;;;;9.67;8.00;;;;;14.77;75.41;101198.31;5038916;28;9373;-64
2022/06/06 05:53:02;;;;;;;;;14.33;10.00;;;;;14.73;75.01;101207.94;5031742;28;9294;-65
2022/06/06 05:55:52;;;;;;;;;8.50;8.00;;;;;14.77;74.78;101204.56;5042454;28;9374;-64
2022/06/06 05:58:43;;;;;;;;;8.00;6.25;;;;;14.84;74.62;101197.25;5027990;28;9426;-65
2022/06/06 06:01:45;;;;;;;;;8.00;4.33;;;;;14.87;74.50;101203.28;5044422;28;9531;-66
2022/06/06 06:04:23;;;;;;;;;7.67;6.00;;;;;14.91;74.42;101208.09;5026511;28;9343;-65
2022/06/06 06:07:08;;;;;;;;;6.67;6.67;;;;;14.84;73.97;101208.09;5036980;28;9233;-65
2022/06/06 06:09:47;;;;;;;;;6.67;5.67;;;;;14.70;73.33;101202.94;5021138;28;9295;-65
2022/06/06 06:12:33;;;;;;;;;7.00;7.00;;;;;14.74;73.68;101205.00;5031619;28;9417;-65
2022/06/06 06:15:25;;;;;;;;;5.33;4.33;;;;;14.70;73.31;101209.16;5035822;28;9456;-65
2022/06/06 06:17:56;;;;;;;;;3.33;3.33;;;;;14.74;73.56;101215.81;5020476;28;9299;-65
2022/06/06 06:20:38;;;;;;;;;7.00;7.00;;;;;14.84;73.15;101218.94;5039480;28;9308;-65
2022/06/06 06:23:08;;;;;;;;;5.00;5.00;;;;;14.95;73.10;101228.31;5035058;28;9178;-65
2022/06/06 06:25:37;;;;;;;;;5.00;3.00;;;;;15.00;72.98;101227.66;5035230;28;9147;-65
2022/06/06 06:28:10;;;;;;;;;6.00;6.00;;;;;15.06;72.59;101218.66;5035588;28;9179;-64
2022/06/06 06:30:55;;;;;;;;;3.00;3.00;;;;;15.04;72.39;101220.75;5023173;28;9144;-65
2022/06/06 06:33:30;;;;;;;;;2.00;2.00;;;;;15.07;72.41;101218.47;5031443;28;9673;-65
2022/06/06 06:36:12;;;;;;;;;6.33;4.67;;;;;15.09;71.63;101224.47;5024657;28;9066;-65
2022/06/06 06:39:08;;;;;;;;;6.67;6.67;;;;;15.10;71.32;101233.44;5015426;28;9230;-65
2022/06/06 06:41:57;;;;;;;;;4.33;4.33;;;;;15.04;70.80;101229.72;5034786;28;10013;-65
2022/06/06 06:44:39;;;;;;;;;6.00;5.67;;;;;15.04;70.65;101232.44;5022601;28;9247;-65
2022/06/06 06:47:11;;;;;;;;;3.00;3.00;;;;;15.18;71.05;101238.63;5034222;28;9310;-65
2022/06/06 06:49:44;;;;;;;;;4.00;4.00;;;;;15.26;70.80;101226.72;5030227;28;9229;-65
2022/06/06 06:52:19;;;;;;;;;5.00;5.00;;;;;15.30;70.37;101238.78;5038491;28;9344;-65
2022/06/06 06:55:27;;;;;;;;;5.00;5.00;;;;;15.37;70.37;101244.19;5035142;28;9289;-63
2022/06/06 06:58:15;;;;;;;;;3.00;3.00;;;;;15.38;69.88;101240.41;5031204;28;9320;-65
2022/06/06 07:00:57;;;;;;;;;3.00;3.00;;;;;15.32;69.93;101236.72;5041498;28;9162;-65
2022/06/06 07:09:37;;;;;;;;;4.00;4.00;;;;;15.16;69.59;101251.59;5044429;28;9150;-65
2022/06/06 07:12:19;;;;;;;;;6.67;3.33;;;;;15.01;69.48;101249.13;5029217;28;9255;-65
2022/06/06 07:14:56;;;;;;;;;4.67;4.67;;;;;14.94;69.59;101252.91;5037036;28;9221;-65
2022/06/06 07:17:26;;;;;;;;;3.00;3.00;;;;;14.89;69.54;101239.16;5043894;28;9304;-65
2022/06/06 07:20:03;;;;;;;;;3.00;3.00;;;;;14.95;69.40;101238.28;5033190;28;9286;-65
2022/06/06 07:22:59;;;;;;;;;4.67;4.67;;;;;15.05;69.27;101246.81;5039202;28;9459;-64
2022/06/06 07:25:24;;;;;;;;;3.25;3.25;;;;;15.14;68.95;101239.28;5027185;28;9459;-64
2022/06/06 07:27:51;;;;;;;;;3.00;3.00;;;;;15.25;68.72;101244.84;5022812;28;9351;-63
2022/06/06 07:30:19;;;;;;;;;5.00;4.33;;;;;15.22;68.81;101236.31;5040684;28;9357;-63
2022/06/06 07:33:23;;;;;;;;;3.00;3.00;;;;;15.23;68.22;101237.97;5035951;28;10074;-64
2022/06/06 07:36:02;;;;;;;;;6.67;5.67;;;;;15.29;67.94;101256.94;5030051;28;9316;-63
2022/06/06 07:38:51;;;;;;;;;3.33;3.33;;;;;15.33;67.61;101244.63;5038656;28;9229;-64
2022/06/06 07:41:29;;;;;;;;;2.00;2.00;;;;;15.37;66.74;101246.91;5033100;28;9246;-64
2022/06/06 07:44:18;;;;;;;;;1.33;1.33;;;;;15.38;66.40;101243.97;5042788;28;9162;-67
2022/06/06 07:47:18;;;;;;;;;1.33;1.33;;;;;15.40;65.48;101250.03;5027070;28;8944;-65
2022/06/06 07:50:06;;;;;;;;;2.00;2.00;;;;;15.44;65.34;101250.44;5027361;28;9332;-64
2022/06/06 07:53:02;;;;;;;;;3.00;3.00;;;;;15.49;64.96;101259.56;5038341;28;9130;-65
2022/06/06 07:55:48;;;;;;;;;3.00;2.67;;;;;15.65;65.29;101246.59;5041459;28;9293;-65
2022/06/06 07:58:26;;;;;;;;;3.00;2.00;;;;;15.69;64.57;101243.22;5026049;28;9349;-62
2022/06/06 08:01:05;;;;;;;;;2.00;2.00;;;;;15.75;63.71;101246.91;5041211;28;9042;-64
2022/06/06 08:03:42;;;;;;;;;1.00;1.00;;;;;15.88;63.14;101248.72;5032627;28;9173;-61
2022/06/06 08:06:25;;;;;;;;;2.00;2.00;;;;;15.97;63.52;101247.41;5031081;28;9082;-65
2022/06/06 08:09:08;;;;;;;;;3.00;1.00;;;;;15.98;62.68;101251.78;5028248;28;9864;-64
2022/06/06 08:11:46;;;;;;;;;1.00;1.00;;;;;16.05;62.51;101244.44;5026790;28;9031;-64
2022/06/06 08:14:44;;;;;;;;;2.00;1.00;;;;;16.07;61.70;101245.84;5026454;28;8838;-65
2022/06/06 08:17:23;;;;;;;;;2.33;2.00;;;;;16.02;61.51;101244.88;5035783;28;9742;-62
2022/06/06 08:20:17;;;;;;;;;1.00;1.00;;;;;16.05;62.19;101244.44;5042181;28;8993;-64
2022/06/06 08:22:45;;;;;;;;;1.00;0.25;;;;;16.18;62.10;101243.50;5038933;28;8837;-65
2022/06/06 08:25:15;;;;;;;;;2.00;2.00;;;;;16.24;61.96;101235.25;5033840;28;8852;-64
2022/06/06 08:27:49;;;;;;;;;2.25;2.25;;;;;16.17;62.30;101248.09;5035715;28;9009;-65
2022/06/06 08:30:16;;;;;;;;;2.00;2.00;;;;;16.03;61.14;101238.38;5035688;28;8826;-64
2022/06/06 08:32:45;;;;;;;;;2.00;2.00;;;;;15.96;60.92;101243.00;5039849;28;9065;-65
2022/06/06 08:35:12;;;;;;;;;3.67;2.00;;;;;15.95;61.21;101244.91;5032983;28;8992;-66
2022/06/06 08:37:50;;;;;;;;;1.33;1.33;;;;;16.03;60.96;101230.22;5036408;28;9083;-66
2022/06/06 08:40:49;;;;;;;;;1.00;1.00;;;;;16.18;61.26;101227.19;5026484;28;9021;-67
2022/06/06 08:43:37;;;;;;;;;1.67;1.67;;;;;16.14;60.65;101228.69;5022075;28;9110;-67
2022/06/06 08:46:21;;;;;;;;;2.00;2.00;;;;;16.07;60.78;101237.72;5031166;28;8955;-66
2022/06/06 08:49:03;;;;;;;;;1.00;1.00;;;;;16.05;60.71;101239.00;5029144;28;8985;-64
2022/06/06 08:51:51;;;;;;;;;2.67;2.67;;;;;16.11;60.94;101237.28;5029662;28;9067;-67
2022/06/06 08:54:40;;;;;;;;;4.33;3.00;;;;;16.07;61.04;101232.28;5043909;28;9148;-66
2022/06/06 08:57:41;;;;;;;;;2.00;1.00;;;;;16.24;60.89;101229.84;5034634;28;9077;-65
2022/06/06 09:00:17;;;;;;;;;2.67;2.00;;;;;16.39;60.94;101229.50;5029233;28;8979;-67
2022/06/06 09:03:07;;;;;;;;;1.25;1.25;;;;;16.29;59.28;101232.75;5038029;28;9750;-67
2022/06/06 09:05:51;;;;;;;;;1.33;1.33;;;;;16.38;60.04;101224.31;5034442;28;8953;-66
2022/06/06 09:08:43;;;;;;;;;1.00;1.00;;;;;16.47;60.09;101225.66;5027191;28;8922;-67
2022/06/06 09:11:34;;;;;;;;;1.00;1.00;;;;;16.40;59.25;101230.34;5029304;28;8832;-67
2022/06/06 09:14:45;;;;;;;;;1.75;1.75;;;;;16.49;59.41;101218.16;5027051;28;8883;-66
2022/06/06 09:17:30;;;;;;;;;1.00;1.00;;;;;16.70;59.93;101217.69;5006287;28;8926;-66
2022/06/06 09:20:18;;;;;;;;;2.00;2.00;;;;;16.66;58.58;101223.81;5031130;28;8918;-66
2022/06/06 09:22:47;;;;;;;;;2.50;2.00;;;;;16.78;58.13;101231.03;5024716;28;8832;-66
2022/06/06 09:25:49;;;;;;;;;2.00;2.00;;;;;16.65;58.50;101211.25;5040618;28;9532;-65
2022/06/06 09:28:34;;;;;;;;;2.67;1.33;;;;;16.55;60.16;101222.66;5023421;28;8805;-67
2022/06/06 09:31:31;;;;;;;;;2.00;1.75;;;;;16.45;61.05;101217.75;5035151;28;8932;-66
2022/06/06 09:34:19;;;;;;;;;4.00;2.75;;;;;16.44;61.96;101212.53;5033024;28;8828;-65
2022/06/06 09:37:20;;;;;;;;;1.75;1.75;;;;;16.62;62.16;101220.72;5031579;28;8820;-65
2022/06/06 09:40:17;;;;;;;;;2.00;2.00;;;;;16.78;61.25;101214.72;5031384;28;8863;-65
2022/06/06 09:43:20;;;;;;;;;1.00;1.00;;;;;16.85;59.65;101209.19;5041175;28;9027;-65
2022/06/06 09:46:04;;;;;;;;;2.00;1.00;;;;;16.79;59.53;101216.38;5037240;28;8816;-65
2022/06/06 09:49:05;;;;;;;;;0.00;0.00;;;;;16.76;58.13;101224.16;5040141;28;9500;-65
2022/06/06 09:51:50;;;;;;;;;0.00;0.00;;;;;16.76;57.43;101214.09;5038608;28;8824;-65
2022/06/06 10:01:01;;;;;;;;;2.00;1.00;;;;;16.88;58.04;101225.06;5032989;28;8809;-65
2022/06/06 10:04:02;;;;;;;;;1.00;1.00;;;;;16.80;57.75;101209.88;5030248;28;8836;-65
2022/06/06 10:06:50;;;;;;;;;2.00;2.00;;;;;16.73;57.81;101198.25;5027526;28;8911;-65
2022/06/06 10:09:31;;;;;;;;;1.25;0.00;;;;;16.73;58.16;101195.53;5039458;28;9001;-66
2022/06/06 10:12:28;;;;;;;;;1.00;1.00;;;;;16.82;58.10;101200.69;5025255;28;8949;-66
2022/06/06 10:15:19;;;;;;;;;1.00;1.00;;;;;16.91;57.48;101202.84;5013878;28;9532;-65
2022/06/06 10:18:07;;;;;;;;;2.25;2.25;;;;;16.99;58.15;101205.25;5023289;28;8827;-65
2022/06/06 10:20:57;;;;;;;;;2.00;2.00;;;;;17.03;57.79;101197.47;5035218;28;9500;-65
2022/06/06 10:24:05;;;;;;;;;1.50;1.50;;;;;17.00;57.24;101200.66;5028313;28;8862;-64
2022/06/06 10:26:54;;;;;;;;;3.67;3.67;;;;;16.98;57.76;101195.44;5021321;28;8852;-64
2022/06/06 10:30:13;;;;;;;;;2.00;2.00;;;;;17.00;58.01;101189.78;5034057;28;9056;-65
2022/06/06 10:33:19;;;;;;;;;2.00;2.00;;;;;16.88;58.59;101191.59;5025914;28;8816;-65
2022/06/06 10:36:11;;;;;;;;;1.25;1.25;;;;;16.89;58.52;101191.34;5030269;28;8888;-65
2022/06/06 10:38:49;;;;;;;;;1.25;1.00;;;;;16.92;58.28;101190.09;5030927;28;8836;-66
2022/06/06 10:41:43;;;;;;;;;3.75;3.75;;;;;16.96;58.17;101191.28;5026703;28;8845;-65
2022/06/06 10:44:29;;;;;;;;;2.00;2.00;;;;;16.97;58.74;101180.16;5030435;28;8902;-65
2022/06/06 10:47:06;;;;;;;;;1.00;1.00;;;;;16.96;58.72;101188.56;5024726;28;8840;-65
2022/06/06 10:49:51;;;;;;;;;4.75;2.00;;;;;16.89;60.61;101193.25;5027388;28;8798;-63
2022/06/06 10:52:17;;;;;;;;;2.00;1.00;;;;;16.80;63.30;101195.44;5027608;28;9442;-65
2022/06/06 10:55:09;;;;;;;;;4.00;3.00;;;;;16.65;65.63;101198.53;5031803;28;8939;-65
2022/06/06 10:57:56;;;;;;;;;3.00;2.00;;;;;16.51;66.52;101202.44;5030361;28;8993;-65
2022/06/06 11:00:29;;;;;;;;;3.67;3.00;;;;;16.37;67.01;101199.03;5036602;28;8903;-65
2022/06/06 11:03:12;;;;;;;;;4.00;4.00;;;;;16.34;67.91;101195.91;5033646;28;8877;-65
2022/06/06 11:06:03;;;;;;;;;6.50;5.00;;;;;16.36;67.91;101210.91;5022379;28;9119;-64
2022/06/06 11:08:51;;;;;;;;;3.33;3.33;;;;;16.31;68.48;101203.44;5030740;28;8891;-64
2022/06/06 11:11:55;;;;;;;;;4.33;4.00;;;;;16.24;67.77;101205.38;5036858;28;8909;-65
2022/06/06 11:14:39;;;;;;;;;6.25;6.25;;;;;16.20;68.16;101198.72;5022474;28;8968;-64
2022/06/06 11:17:27;;;;;;;;;2.00;2.00;;;;;16.22;68.21;101199.34;5034113;28;8804;-64
2022/06/06 11:20:39;;;;;;;;;6.67;3.00;;;;;16.19;68.51;101191.66;5026890;28;8825;-64
2022/06/06 11:23:31;;;;;;;;;4.00;4.00;;;;;16.08;68.31;101205.94;5028256;28;8925;-64
2022/06/06 11:25:57;;;;;;;;;3.00;3.00;;;;;15.96;67.31;101195.00;5039747;28;8921;-64
2022/06/06 11:28:55;;;;;;;;;2.33;2.33;;;;;15.93;67.42;101194.59;5025417;28;8941;-64
2022/06/06 11:31:36;;;;;;;;;3.00;3.00;;;;;15.95;67.90;101206.06;5027664;28;8943;-64
2022/06/06 11:34:54;;;;;;;;;4.00;3.67;;;;;15.91;68.24;101204.84;5025610;28;8924;-64
2022/06/06 11:37:50;;;;;;;;;2.50;2.50;;;;;15.93;67.98;101200.88;5022878;28;9006;-63
2022/06/06 11:40:26;;;;;;;;;2.00;1.25;;;;;15.94;67.68;101194.38;5029000;28;8898;-65
2022/06/06 11:43:34;;;;;;;;;2.00;2.00;;;;;16.03;67.70;101197.63;5042584;28;8825;-64
2022/06/06 11:46:12;;;;;;;;;5.67;3.00;;;;;16.04;68.07;101191.16;5028381;28;8832;-64
2022/06/06 11:49:06;;;;;;;;;2.50;2.50;;;;;15.94;68.36;101205.22;5029075;28;9776;-65
2022/06/06 11:51:44;;;;;;;;;4.33;4.33;;;;;15.86;69.55;101210.09;5045461;28;8826;-65
2022/06/06 11:54:38;;;;;;;;;4.00;2.67;;;;;15.85;69.90;101198.41;5035569;28;9045;-64
2022/06/06 11:57:38;;;;;;;;;3.00;3.00;;;;;15.85;70.43;101197.59;5037918;28;8958;-64
2022/06/06 12:00:07;;;;;;;;;3.67;3.67;;;;;15.88;70.76;101198.00;5037545;28;9079;-64
2022/06/06 12:03:08;;;;;;;;;5.00;5.00;;;;;15.90;70.50;101195.03;5043012;28;8987;-64
2022/06/06 12:06:10;;;;;;;;;2.25;1.25;;;;;15.93;70.54;101186.47;5032285;28;9164;-64
2022/06/06 12:08:59;;;;;;;;;4.33;4.33;;;;;15.91;70.59;101191.25;5041053;28;8910;-65
2022/06/06 12:11:37;;;;;;;;;4.00;3.00;;;;;15.88;70.96;101195.28;5044604;28;8986;-64
2022/06/06 12:14:46;;;;;;;;;2.67;2.67;;;;;15.89;71.01;101196.94;5023966;28;9002;-65
2022/06/06 12:17:24;;;;;;;;;7.00;4.00;;;;;15.84;71.90;101180.47;5030087;28;9204;-64
2022/06/06 12:20:18;;;;;;;;;2.67;2.00;;;;;15.93;72.62;101175.59;5033645;28;9144;-62
2022/06/06 12:22:59;;;;;;;;;5.00;5.00;;;;;16.01;72.69;101180.75;5038512;28;9003;-64
2022/06/06 12:25:49;;;;;;;;;5.00;5.00;;;;;15.99;72.44;101180.97;5046479;28;9138;-64
2022/06/06 12:28:44;;;;;;;;;3.00;3.00;;;;;16.00;72.18;101168.22;5026390;28;9158;-64
2022/06/06 12:31:41;;;;;;;;;3.67;3.67;;;;;15.90;72.34;101167.88;5040556;28;9143;-65
2022/06/06 12:34:30;;;;;;;;;8.00;7.00;;;;;15.85;72.22;101175.88;5031497;28;8993;-65
2022/06/06 12:37:22;;;;;;;;;4.33;3.00;;;;;15.81;72.71;101173.59;5036988;28;9335;-63
2022/06/06 12:40:42;;;;;;;;;2.00;2.00;;;;;15.74;72.73;101175.53;5033077;28;9199;-64
2022/06/06 12:43:27;;;;;;;;;3.33;3.33;;;;;15.70;72.50;101162.63;4995674;28;9152;-64
2022/06/06 12:46:08;;;;;;;;;3.67;2.00;;;;;15.65;72.68;101174.13;5022854;28;9066;-65
2022/06/06 12:48:53;;;;;;;;;3.67;3.67;;;;;15.62;72.74;101165.56;5037429;28;9098;-64
2022/06/06 12:51:24;;;;;;;;;2.00;2.00;;;;;15.66;72.76;101169.53;5029046;28;9833;-64